createdAt,value
2019-03-25T01:01:34.914Z,95457.84
2019-03-25T01:06:36.960Z,95455.52
2019-03-25T01:11:48.616Z,95450.65
2019-03-25T01:16:40.385Z,95446.34
2019-03-25T01:21:41.698Z,95455.45
2019-03-25T01:26:43.006Z,95449.20
2019-03-25T02:35:05.669Z,95425.41
2019-03-25T02:40:06.952Z,95436.05
2019-03-25T02:45:08.238Z,95423.97
2019-03-25T02:50:09.537Z,95432.44
2019-03-25T02:55:10.829Z,95423.09
2019-03-25T03:00:12.204Z,95398.63
2019-03-25T04:02:16.022Z,95391.73
2019-03-25T04:07:18.029Z,95393.41
2019-03-25T04:12:19.314Z,95394.12
2019-03-25T04:17:20.621Z,95387.52
2019-03-25T04:22:22.688Z,95394.88
2019-03-25T04:27:23.994Z,95393.42
2019-03-25T05:35:46.834Z,95398.97
2019-03-25T05:40:46.559Z,95403.22
2019-03-25T05:45:48.606Z,95392.13
2019-03-25T05:50:49.906Z,95399.66
2019-03-25T05:55:51.276Z,95401.54
2019-03-25T07:04:11.992Z,95422.33
2019-03-25T07:09:14.015Z,95432.34
2019-03-25T07:14:15.317Z,95425.99
2019-03-25T07:19:16.605Z,95449.69
2019-03-25T07:24:17.945Z,95439.16
2019-03-25T07:29:19.265Z,95438.97
2019-03-25T08:31:22.761Z,95449.03
2019-03-25T08:36:24.836Z,95434.12
2019-03-25T08:41:26.124Z,95448.98
2019-03-25T08:46:27.442Z,95459.67
2019-03-25T08:51:28.720Z,95440.74
2019-03-25T08:56:30.029Z,95427.95
2019-03-25T10:04:53.348Z,95487.91
2019-03-25T10:09:54.628Z,95500.54
2019-03-25T10:14:55.908Z,95488.69
2019-03-25T10:19:57.205Z,95449.09
2019-03-25T10:24:58.479Z,95441.73
2019-03-25T10:30:00.502Z,95484.33
2019-03-25T11:32:03.617Z,95411.50
2019-03-25T11:37:05.655Z,95468.56
2019-03-25T11:42:06.972Z,95395.05
2019-03-25T11:47:08.255Z,95423.94
2019-03-25T11:52:09.552Z,95394.58
2019-03-25T11:57:10.870Z,95405.89
2019-03-25T13:05:34.131Z,95372.16
2019-03-25T13:10:35.412Z,95435.25
2019-03-25T13:15:36.696Z,95413.83
2019-03-25T13:20:37.989Z,95428.52
2019-03-25T13:25:39.647Z,95413.13
2019-03-25T13:30:40.609Z,95406.52
2019-03-25T14:32:43.990Z,95447.20
2019-03-25T14:37:45.289Z,95441.08
2019-03-25T14:42:47.275Z,95473.89
2019-03-25T14:47:49.375Z,95542.80
2019-03-25T14:52:51.456Z,95459.20
2019-03-25T14:57:53.492Z,95451.66
2019-03-25T16:00:18.869Z,95466.76
2019-03-25T16:05:20.908Z,95460.80
2019-03-25T16:10:22.232Z,95466.73
2019-03-25T16:15:34.631Z,95470.25
2019-03-25T16:20:36.674Z,95610.37
2019-03-25T16:25:38.005Z,95529.67
2019-03-25T16:30:39.361Z,95518.81
2019-03-25T16:35:40.674Z,95533.41
2019-03-25T16:40:41.993Z,95511.56
2019-03-25T16:45:43.318Z,95514.77
2019-03-25T16:50:44.741Z,95535.66
2019-03-25T16:55:46.096Z,95534.97
2019-03-25T17:00:47.587Z,95552.75
2019-03-25T17:05:48.926Z,95554.77
2019-03-25T17:10:50.246Z,95577.07
2019-03-25T17:15:51.581Z,95562.53
2019-03-25T17:20:54.965Z,95564.27
2019-03-25T17:25:58.810Z,95577.80
2019-03-25T17:31:03.131Z,95592.14
2019-03-25T17:36:02.768Z,95594.95
2019-03-25T17:41:04.699Z,95600.87
2019-03-25T17:46:06.969Z,95617.58
2019-03-25T17:51:08.346Z,95603.40
2019-03-25T17:56:10.184Z,95594.02
2019-03-25T18:01:12.930Z,95605.16
2019-03-25T18:06:14.309Z,95610.17
2019-03-25T18:11:15.798Z,95607.77
2019-03-25T18:16:17.297Z,95627.85
2019-03-25T18:21:18.807Z,95662.41
2019-03-25T18:26:20.208Z,95712.84
2019-03-25T18:31:21.706Z,95719.52
2019-03-25T18:36:23.033Z,95712.16
2019-03-25T18:41:29.065Z,95707.81
2019-03-25T18:46:33.474Z,95704.47
2019-03-25T18:51:36.320Z,95695.04
2019-03-25T18:56:39.417Z,95699.20
2019-03-25T19:01:54.433Z,95710.67
2019-03-25T19:06:50.150Z,95714.64
2019-03-25T19:11:51.563Z,95722.54
2019-03-25T19:16:57.317Z,95726.17
2019-03-25T19:21:58.758Z,95725.76
2019-03-25T19:27:09.632Z,95729.72
2019-03-25T19:32:11.415Z,95736.01
2019-03-25T19:37:12.985Z,95749.95
2019-03-25T19:42:14.496Z,95756.00
2019-03-25T19:47:17.878Z,95750.97
2019-03-25T19:52:25.892Z,95763.41
2019-03-25T19:57:28.446Z,95785.89
2019-03-25T20:02:33.140Z,95802.40
2019-03-25T20:07:34.718Z,95795.95
2019-03-25T20:12:38.871Z,95795.08
2019-03-25T20:18:09.650Z,95789.14
2019-03-25T20:23:19.607Z,95796.77
2019-03-25T20:28:26.863Z,95790.98
2019-03-25T20:33:40.193Z,95795.30
2019-03-25T20:38:42.299Z,95791.81
2019-03-25T20:43:46.562Z,95785.02
2019-03-25T20:48:49.749Z,95793.31
2019-03-25T20:54:00.942Z,95795.09
2019-03-25T20:59:03.849Z,95805.03
2019-03-25T21:04:07.792Z,95806.81
2019-03-25T21:09:10.209Z,95807.32
2019-03-25T21:14:13.573Z,95804.61
2019-03-25T21:19:15.150Z,95814.74
2019-03-25T21:24:22.820Z,95816.80
2019-03-25T21:29:26.330Z,95822.79
2019-03-25T21:34:27.726Z,95828.03
2019-03-25T21:39:29.113Z,95833.70
2019-03-25T21:44:32.517Z,95823.20
2019-03-25T21:49:33.947Z,95831.90
2019-03-25T21:54:35.294Z,95829.97
2019-03-25T21:59:37.727Z,95833.94
2019-03-25T22:04:39.052Z,95840.52
2019-03-25T22:09:40.454Z,95841.94
2019-03-25T22:14:41.790Z,95835.40
2019-03-25T22:19:43.151Z,95840.73
2019-03-25T22:24:44.563Z,95848.07
2019-03-25T22:29:45.943Z,95840.20
2019-03-25T22:34:47.325Z,95838.23
2019-03-25T22:39:48.737Z,95855.83
2019-03-25T22:44:50.106Z,95850.61
2019-03-25T22:49:52.221Z,95851.94
2019-03-25T22:54:53.572Z,95849.50
2019-03-25T22:59:54.913Z,95858.80
2019-03-25T23:30:30.828Z,95899.36
2019-03-25T23:35:32.176Z,95901.33
2019-03-25T23:40:33.473Z,95914.02
2019-03-25T23:45:34.792Z,95919.81
2019-03-25T23:50:36.097Z,95920.70
2019-03-25T23:55:37.523Z,95925.77
